Time;durP1;ratioP1;P1;durP2;ratioP2;P2;SDS_P1;SDS_P2;PMS_P1;PMS_P2;Temp;Humidity;BMP_temperature;BMP_pressure;BME280_temperature;BME280_humidity;BME280_pressure;Samples;Min_cycle;Max_cycle;Signal;HPM_P1;HPM_P2
2022/06/29 00:02:17;;;;;;;10.15;6.35;;;;;;;18.74;82.57;99488.13;5033772;28;20416;-79
2022/06/29 00:04:42;;;;;;;6.97;5.95;;;;;;;18.78;83.19;99507.97;5051757;28;20025;-79
2022/06/29 00:07:08;;;;;;;11.60;6.30;;;;;;;18.69;83.29;99498.97;5033955;28;20487;-79
2022/06/29 00:09:33;;;;;;;8.82;6.63;;;;;;;18.73;83.38;99509.16;5034117;28;20021;-79
2022/06/29 00:11:59;;;;;;;10.25;7.18;;;;;;;18.80;82.98;99508.41;5034041;28;20110;-79
2022/06/29 00:14:24;;;;;;;6.57;5.97;;;;;;;18.71;82.48;99505.09;5051944;28;20021;-79
2022/06/29 00:16:50;;;;;;;8.68;5.97;;;;;;;18.74;82.50;99504.31;5050757;28;20045;-79
2022/06/29 00:19:15;;;;;;;10.07;7.18;;;;;;;18.84;81.93;99509.28;5043305;28;20111;-79
2022/06/29 00:21:41;;;;;;;7.00;6.25;;;;;;;18.87;81.29;99507.66;5072055;28;20137;-79
2022/06/29 00:24:06;;;;;;;6.50;5.85;;;;;;;18.93;80.41;99500.44;5054030;28;20036;-79
2022/06/29 00:26:32;;;;;;;7.25;6.47;;;;;;;18.91;80.01;99492.31;5043556;28;20499;-79
2022/06/29 00:28:57;;;;;;;8.55;6.35;;;;;;;19.12;78.97;99496.56;5050658;28;20110;-80
2022/06/29 00:31:23;;;;;;;14.50;5.97;;;;;;;19.22;77.62;99484.50;5046427;28;20109;-80
2022/06/29 00:33:49;;;;;;;7.15;6.30;;;;;;;19.32;76.53;99494.28;5033516;28;20048;-79
2022/06/29 00:36:14;;;;;;;6.43;5.22;;;;;;;19.38;76.12;99494.72;5050623;28;20408;-79
2022/06/29 00:38:40;;;;;;;11.48;5.95;;;;;;;19.39;75.25;99490.69;5032839;28;20025;-80
2022/06/29 00:41:07;;;;;;;8.43;5.40;;;;;;;19.52;73.94;99491.19;5033010;28;20060;-79
2022/06/29 00:43:40;;;;;;;6.43;5.43;;;;;;;19.67;72.74;99500.59;5033572;28;20028;-79
2022/06/29 00:46:05;;;;;;;9.25;4.85;;;;;;;19.68;71.63;99492.88;5051244;28;20111;-79
2022/06/29 00:48:31;;;;;;;5.72;5.18;;;;;;;19.74;71.34;99509.13;5032671;28;20116;-80
2022/06/29 00:51:00;;;;;;;6.65;5.40;;;;;;;19.74;71.48;99505.50;5033518;28;20032;-80
2022/06/29 00:53:32;;;;;;;12.27;5.53;;;;;;;19.69;70.84;99501.00;5051303;28;20032;-80
2022/06/29 00:56:01;;;;;;;6.80;4.85;;;;;;;19.67;71.18;99497.75;5050124;28;20017;-80
2022/06/29 00:58:27;;;;;;;5.97;5.07;;;;;;;19.57;71.25;99501.34;5050430;28;20428;-80
2022/06/29 01:00:55;;;;;;;8.27;5.32;;;;;;;19.67;70.85;99494.91;5033110;28;20035;-79
2022/06/29 01:03:20;;;;;;;5.82;5.22;;;;;;;19.67;70.30;99489.25;5033233;28;20176;-80
2022/06/29 01:05:47;;;;;;;9.50;4.95;;;;;;;19.39;71.24;99490.69;5033365;28;20028;-80
2022/06/29 01:08:12;;;;;;;5.40;4.90;;;;;;;19.27;71.66;99474.00;5032237;28;20036;-79
2022/06/29 01:10:38;;;;;;;5.45;4.95;;;;;;;19.34;72.12;99486.19;5032514;28;20574;-79
2022/06/29 01:13:04;;;;;;;6.32;5.18;;;;;;;19.17;72.70;99495.41;5050105;28;20036;-79
2022/06/29 01:15:29;;;;;;;9.50;5.40;;;;;;;19.17;72.54;99493.34;5033056;28;20051;-79
2022/06/29 01:17:55;;;;;;;6.07;4.90;;;;;;;19.20;72.14;99481.25;5050450;28;20028;-79
2022/06/29 01:20:20;;;;;;;5.75;4.82;;;;;;;18.89;73.41;99474.09;5050921;28;20056;-79
2022/06/29 01:22:46;;;;;;;6.35;5.75;;;;;;;19.05;73.35;99473.81;5050979;28;20017;-79
2022/06/29 01:25:12;;;;;;;5.90;5.30;;;;;;;18.91;73.99;99466.81;5050954;28;20491;-79
2022/06/29 01:27:38;;;;;;;7.97;5.55;;;;;;;18.96;73.58;99457.13;5032060;28;20025;-79
2022/06/29 01:30:07;;;;;;;6.45;5.20;;;;;;;18.94;73.57;99454.72;5033133;28;20131;-79
2022/06/29 01:32:33;;;;;;;5.70;5.15;;;;;;;18.77;73.73;99450.53;5050790;28;20100;-79
2022/06/29 01:34:59;;;;;;;5.85;5.25;;;;;;;18.97;73.60;99464.44;5050973;28;20435;-79
2022/06/29 01:37:25;;;;;;;5.90;5.32;;;;;;;19.15;72.97;99467.44;5032504;28;20071;-79
2022/06/29 01:39:50;;;;;;;5.40;4.93;;;;;;;19.38;71.93;99469.19;5032943;28;20025;-79
2022/06/29 01:42:16;;;;;;;6.45;5.57;;;;;;;19.30;72.25;99450.50;5050211;28;20075;-79
2022/06/29 01:44:41;;;;;;;6.43;5.22;;;;;;;19.13;72.04;99424.50;5050875;28;20033;-79
2022/06/29 01:47:07;;;;;;;6.10;5.43;;;;;;;19.13;72.43;99455.69;5031707;28;20051;-79
2022/06/29 01:49:33;;;;;;;6.15;5.55;;;;;;;19.00;73.04;99460.03;5050523;28;20038;-80
2022/06/29 01:51:58;;;;;;;10.63;6.05;;;;;;;18.78;73.61;99452.16;5049801;28;20033;-79
2022/06/29 01:54:24;;;;;;;6.97;5.72;;;;;;;18.70;74.13;99450.44;5032722;28;20112;-79
2022/06/29 01:56:49;;;;;;;11.38;5.85;;;;;;;18.61;74.76;99449.97;5050004;28;20048;-79
2022/06/29 01:59:15;;;;;;;10.38;5.50;;;;;;;18.67;74.92;99449.19;5032736;28;20021;-80
2022/06/29 02:01:40;;;;;;;10.70;4.85;;;;;;;18.90;73.70;99445.34;5050238;28;20029;-79
2022/06/29 02:04:06;;;;;;;6.43;5.78;;;;;;;19.10;73.39;99456.47;5033095;28;20107;-80
2022/06/29 02:06:32;;;;;;;5.95;5.35;;;;;;;19.29;72.89;99448.88;5031861;28;20411;-79
2022/06/29 02:08:58;;;;;;;8.13;5.75;;;;;;;19.08;73.69;99454.03;5050828;28;20024;-80
2022/06/29 02:11:23;;;;;;;6.25;5.00;;;;;;;18.96;74.30;99454.31;5050392;28;20056;-79
2022/06/29 02:13:49;;;;;;;8.63;5.60;;;;;;;18.90;74.30;99439.69;5031900;28;20025;-79
2022/06/29 02:16:15;;;;;;;8.38;6.07;;;;;;;18.93;74.43;99444.56;5032752;28;20473;-79
2022/06/29 02:18:42;;;;;;;7.63;5.60;;;;;;;18.92;74.20;99437.25;5032198;28;20155;-79
2022/06/29 02:21:07;;;;;;;11.98;5.82;;;;;;;18.77;74.73;99442.03;5032718;28;20111;-80
2022/06/29 02:23:33;;;;;;;8.13;6.68;;;;;;;18.78;75.20;99445.66;5050399;28;20029;-80
2022/06/29 02:25:58;;;;;;;6.40;5.53;;;;;;;18.99;74.94;99447.03;5034880;28;20025;-79
2022/06/29 02:28:24;;;;;;;12.02;6.20;;;;;;;19.11;73.95;99449.59;5035478;28;20032;-79
2022/06/29 02:36:17;;;;;;;12.00;5.60;;;;;;;19.04;74.38;99460.88;5054245;28;20564;-79
2022/06/29 02:38:43;;;;;;;6.20;5.60;;;;;;;19.22;73.53;99453.31;5052845;28;20029;-79
2022/06/29 02:41:08;;;;;;;10.13;6.30;;;;;;;19.11;73.10;99446.75;5053924;28;20082;-79
2022/06/29 02:43:34;;;;;;;9.55;4.95;;;;;;;19.21;73.11;99454.53;5035492;28;20032;-79
2022/06/29 02:45:59;;;;;;;11.52;6.85;;;;;;;19.24;72.47;99437.94;5035829;28;20044;-79
2022/06/29 02:48:25;;;;;;;9.68;7.22;;;;;;;19.02;73.51;99451.94;5035013;28;20408;-80
2022/06/29 02:50:50;;;;;;;9.02;5.82;;;;;;;19.14;73.33;99451.63;5035651;28;20127;-79
2022/06/29 02:53:16;;;;;;;11.75;5.65;;;;;;;19.10;73.07;99447.97;5036018;28;20136;-79
2022/06/29 02:55:41;;;;;;;11.32;5.68;;;;;;;18.96;73.56;99445.00;5053485;28;20483;-79
2022/06/29 02:58:07;;;;;;;10.25;6.57;;;;;;;18.91;73.58;99452.63;5052818;28;20028;-79
2022/06/29 03:00:32;;;;;;;10.88;6.60;;;;;;;19.08;72.80;99433.38;5053158;28;20468;-79
2022/06/29 03:02:58;;;;;;;14.25;7.38;;;;;;;19.37;71.91;99456.25;5035558;28;20021;-79
2022/06/29 03:05:23;;;;;;;12.80;5.85;;;;;;;19.35;71.65;99453.00;5047597;28;20100;-79
2022/06/29 03:07:49;;;;;;;8.75;6.13;;;;;;;19.44;71.54;99456.28;5033694;28;20029;-79
2022/06/29 03:10:14;;;;;;;12.52;6.30;;;;;;;19.24;71.70;99440.75;5053101;28;20021;-79
2022/06/29 03:12:40;;;;;;;7.15;6.18;;;;;;;19.18;72.02;99438.28;5035407;28;20419;-79
2022/06/29 03:15:06;;;;;;;8.80;5.97;;;;;;;19.34;71.39;99437.19;5053021;28;20410;-79
2022/06/29 03:17:32;;;;;;;17.48;6.50;;;;;;;19.42;71.31;99433.16;5052282;28;20031;-79
2022/06/29 03:19:58;;;;;;;7.07;5.72;;;;;;;19.35;72.13;99436.78;5034494;28;20095;-80
2022/06/29 03:22:24;;;;;;;10.07;6.70;;;;;;;19.16;72.73;99434.25;5035107;28;20032;-79
2022/06/29 03:24:50;;;;;;;10.23;6.43;;;;;;;19.21;72.79;99436.69;5053487;28;20028;-79
2022/06/29 03:27:15;;;;;;;11.13;5.93;;;;;;;19.46;71.43;99433.19;5057328;28;20469;-79
2022/06/29 03:29:41;;;;;;;11.02;5.70;;;;;;;19.48;71.49;99428.75;5072134;28;20024;-79
2022/06/29 03:32:08;;;;;;;13.02;6.03;;;;;;;19.50;71.13;99426.31;5033472;28;20063;-80
2022/06/29 03:34:33;;;;;;;19.40;7.97;;;;;;;19.47;71.70;99427.13;5046306;28;20505;-80
2022/06/29 03:36:59;;;;;;;9.70;6.47;;;;;;;19.50;71.00;99425.53;5049465;28;20103;-79
2022/06/29 03:39:24;;;;;;;13.30;7.22;;;;;;;19.37;71.25;99425.03;5053189;28;20031;-79
2022/06/29 03:41:50;;;;;;;8.35;5.97;;;;;;;19.25;71.87;99422.53;5047836;28;20447;-79
2022/06/29 03:44:15;;;;;;;8.50;5.82;;;;;;;19.25;71.56;99414.03;5031197;28;20021;-81
2022/06/29 03:46:41;;;;;;;12.00;6.10;;;;;;;19.32;71.34;99414.09;5043322;28;20129;-80
2022/06/29 03:49:06;;;;;;;14.77;6.30;;;;;;;19.30;70.78;99413.66;5030714;28;20048;-79
2022/06/29 03:51:33;;;;;;;21.48;6.40;;;;;;;19.21;71.96;99414.00;5030448;28;20067;-77
2022/06/29 03:53:58;;;;;;;11.40;5.70;;;;;;;19.07;72.95;99420.41;5031653;28;20076;-77
2022/06/29 03:56:24;;;;;;;12.40;5.93;;;;;;;19.12;73.11;99434.22;5032358;28;20049;-77
2022/06/29 03:58:49;;;;;;;12.48;6.22;;;;;;;19.05;73.03;99432.13;5030334;28;20480;-77
2022/06/29 04:01:15;;;;;;;11.93;6.32;;;;;;;19.06;73.60;99432.94;5032095;28;20032;-77
2022/06/29 04:03:40;;;;;;;15.23;7.55;;;;;;;19.01;73.81;99416.31;5032268;28;20407;-77
2022/06/29 04:06:06;;;;;;;7.47;6.78;;;;;;;18.97;73.77;99421.91;5030931;28;20111;-77
2022/06/29 04:08:31;;;;;;;8.48;6.80;;;;;;;18.92;73.94;99423.09;5031523;28;20564;-77
2022/06/29 04:10:57;;;;;;;9.77;6.97;;;;;;;18.98;73.80;99417.06;5030757;28;20120;-77
2022/06/29 04:13:22;;;;;;;12.68;7.65;;;;;;;18.99;74.01;99419.50;5030441;28;20029;-77
2022/06/29 04:15:49;;;;;;;10.50;7.25;;;;;;;19.05;73.97;99434.16;5030212;28;20044;-77
2022/06/29 04:18:14;;;;;;;11.80;8.32;;;;;;;19.03;73.76;99425.22;5030924;28;20029;-77
2022/06/29 04:23:24;;;;;;;11.52;7.30;;;;;;;19.15;72.66;99436.25;5031875;28;20142;-77
2022/06/29 04:25:49;;;;;;;10.85;7.40;;;;;;;19.13;72.51;99416.00;5031237;28;20108;-77
2022/06/29 04:28:15;;;;;;;11.68;8.07;;;;;;;19.17;72.07;99435.88;5031253;28;20029;-77
2022/06/29 04:30:40;;;;;;;18.90;7.68;;;;;;;19.10;71.99;99430.97;5031703;28;20493;-77
2022/06/29 04:33:07;;;;;;;9.95;6.85;;;;;;;19.16;71.81;99417.22;5031138;28;20492;-77
2022/06/29 04:35:33;;;;;;;13.40;7.20;;;;;;;19.31;72.13;99426.66;5031833;28;20108;-77
2022/06/29 04:37:59;;;;;;;14.15;7.82;;;;;;;19.57;71.34;99431.22;5030910;28;20088;-77
2022/06/29 04:40:24;;;;;;;8.63;7.72;;;;;;;19.73;70.50;99439.41;5031533;28;20029;-77
2022/06/29 04:42:50;;;;;;;15.50;7.38;;;;;;;19.88;69.43;99428.09;5031665;28;20037;-77
2022/06/29 04:48:00;;;;;;;12.82;6.45;;;;;;;20.23;68.41;99434.34;5030401;28;20068;-77
2022/06/29 04:50:27;;;;;;;10.02;6.57;;;;;;;20.31;67.55;99436.78;5029723;28;20130;-77
2022/06/29 04:52:53;;;;;;;9.93;7.28;;;;;;;20.47;67.72;99435.59;5029228;28;20033;-77
2022/06/29 04:55:18;;;;;;;10.73;6.90;;;;;;;20.59;67.47;99432.34;5029851;28;20029;-77
2022/06/29 04:57:43;;;;;;;16.67;6.90;;;;;;;20.67;67.10;99424.63;5029863;28;20036;-77
2022/06/29 05:00:10;;;;;;;7.25;6.32;;;;;;;20.66;66.54;99431.53;5020351;28;20060;-77
2022/06/29 05:02:35;;;;;;;7.97;6.53;;;;;;;20.74;66.66;99433.19;5029518;28;20471;-77
2022/06/29 05:05:01;;;;;;;10.20;6.03;;;;;;;20.92;65.46;99429.53;5030956;28;20040;-77
2022/06/29 05:07:26;;;;;;;11.48;6.40;;;;;;;21.17;64.50;99440.06;5026098;28;20527;-77
2022/06/29 05:09:52;;;;;;;9.63;5.80;;;;;;;21.21;64.58;99434.38;5024411;28;20028;-77
2022/06/29 05:12:17;;;;;;;13.23;6.03;;;;;;;21.46;63.17;99443.66;5029411;28;20021;-77
2022/06/29 05:14:43;;;;;;;9.63;5.53;;;;;;;21.76;61.72;99423.69;5028697;28;20120;-75
2022/06/29 05:17:08;;;;;;;6.60;5.28;;;;;;;21.90;60.60;99432.16;5022879;28;20037;-76
2022/06/29 05:19:34;;;;;;;6.22;5.32;;;;;;;21.91;60.99;99427.31;5011454;28;20068;-78
2022/06/29 05:21:59;;;;;;;9.43;5.50;;;;;;;21.94;60.56;99432.94;5023559;28;20484;-78
2022/06/29 05:24:24;;;;;;;7.72;5.50;;;;;;;22.18;60.00;99432.44;5029877;28;20036;-77
2022/06/29 05:26:50;;;;;;;6.93;5.40;;;;;;;22.29;59.05;99424.66;5030167;28;20140;-74
2022/06/29 05:29:15;;;;;;;8.80;6.13;;;;;;;22.34;59.46;99431.94;5029950;28;20032;-79
2022/06/29 05:31:41;;;;;;;13.68;7.13;;;;;;;22.36;58.88;99418.88;5029520;28;20061;-80
2022/06/29 05:34:06;;;;;;;6.45;5.55;;;;;;;22.40;58.80;99427.41;5029932;28;20031;-79
2022/06/29 05:36:32;;;;;;;7.05;5.57;;;;;;;22.64;58.52;99417.09;5030234;28;20025;-79
2022/06/29 05:38:57;;;;;;;9.05;6.15;;;;;;;22.91;57.42;99424.19;5029948;28;20033;-75
2022/06/29 05:41:23;;;;;;;7.65;5.63;;;;;;;23.04;57.54;99413.88;5025434;28;20033;-75
2022/06/29 05:43:51;;;;;;;7.00;5.32;;;;;;;23.16;57.20;99423.13;5028117;28;20092;-76
2022/06/29 05:46:18;;;;;;;18.95;6.45;;;;;;;23.28;57.23;99425.50;5027677;28;20401;-76
2022/06/29 05:48:45;;;;;;;15.40;5.80;;;;;;;23.38;56.37;99426.63;5029443;28;20057;-76
2022/06/29 05:51:10;;;;;;;12.52;5.18;;;;;;;23.38;55.74;99416.00;5029345;28;20037;-76
2022/06/29 05:53:36;;;;;;;8.57;5.50;;;;;;;23.67;54.92;99432.81;5049684;28;20040;-76
2022/06/29 05:56:02;;;;;;;9.40;5.70;;;;;;;23.93;54.62;99430.47;5033552;28;20036;-77
2022/06/29 05:58:28;;;;;;;8.52;5.65;;;;;;;23.94;53.37;99419.81;5033130;28;20519;-80
2022/06/29 06:00:53;;;;;;;6.10;4.55;;;;;;;24.11;53.38;99420.84;5035090;28;20120;-80
2022/06/29 06:03:19;;;;;;;13.82;6.38;;;;;;;24.16;53.82;99426.09;5036327;28;20426;-80
2022/06/29 06:06:00;;;;;;;6.47;5.68;;;;;;;24.33;52.54;99427.09;5036104;28;20025;-79
2022/06/29 06:08:25;;;;;;;8.98;5.95;;;;;;;24.46;52.13;99420.78;5035494;28;20029;-77
2022/06/29 06:10:51;;;;;;;10.25;5.25;;;;;;;24.63;51.66;99418.88;5052778;28;20032;-78
2022/06/29 06:13:16;;;;;;;6.00;4.63;;;;;;;24.67;51.25;99422.47;5032511;28;20449;-78
2022/06/29 06:15:42;;;;;;;6.28;4.90;;;;;;;24.90;51.10;99427.41;5033700;28;20460;-77
2022/06/29 06:18:07;;;;;;;11.50;5.45;;;;;;;24.85;50.59;99407.09;5052797;28;20025;-80
2022/06/29 06:20:33;;;;;;;13.88;5.22;;;;;;;24.81;50.23;99410.03;5036209;28;20067;-79
2022/06/29 06:22:58;;;;;;;10.70;4.70;;;;;;;25.02;49.81;99411.69;5054482;28;20032;-79
2022/06/29 06:25:24;;;;;;;4.80;4.20;;;;;;;25.07;49.89;99408.31;5034516;28;20542;-80
2022/06/29 06:27:49;;;;;;;12.02;5.40;;;;;;;25.24;50.01;99394.13;5054015;28;20489;-76
2022/06/29 06:30:15;;;;;;;11.48;4.93;;;;;;;25.32;49.86;99401.31;5029252;28;20043;-76
2022/06/29 06:32:40;;;;;;;11.95;4.93;;;;;;;25.28;49.01;99411.22;5016168;28;20033;-77
2022/06/29 06:35:07;;;;;;;5.80;4.90;;;;;;;25.32;49.59;99400.53;5015655;28;20083;-80
2022/06/29 06:37:32;;;;;;;9.25;4.53;;;;;;;25.46;49.16;99411.69;5035853;28;20032;-80
2022/06/29 06:42:41;;;;;;;6.28;4.82;;;;;;;25.92;48.69;99405.47;5047984;28;20091;-80
2022/06/29 06:45:07;;;;;;;9.85;6.22;;;;;;;26.12;48.16;99408.31;5024133;28;20046;-80
2022/06/29 06:47:33;;;;;;;8.90;4.72;;;;;;;26.18;47.09;99400.81;5051338;28;20051;-79
2022/06/29 06:49:59;;;;;;;7.70;4.72;;;;;;;26.38;47.17;99399.94;5035762;28;20077;-79
2022/06/29 06:52:29;;;;;;;8.48;4.43;;;;;;;26.54;47.06;99396.28;5035978;28;20029;-80
2022/06/29 06:54:54;;;;;;;8.88;4.85;;;;;;;26.68;46.48;99400.06;5035893;28;20028;-79
2022/06/29 06:57:20;;;;;;;15.38;5.63;;;;;;;26.59;46.52;99392.88;5035462;28;20025;-78
2022/06/29 06:59:45;;;;;;;8.50;4.32;;;;;;;26.60;45.81;99390.84;5035542;28;20078;-80
2022/06/29 07:02:11;;;;;;;10.88;4.47;;;;;;;26.65;45.83;99398.88;5053013;28;20056;-80
2022/06/29 07:04:36;;;;;;;11.27;5.30;;;;;;;26.55;46.16;99382.78;5053701;28;20032;-78
2022/06/29 07:07:02;;;;;;;9.05;4.50;;;;;;;26.88;45.52;99391.38;5035484;28;20033;-79
2022/06/29 07:09:27;;;;;;;8.43;4.80;;;;;;;27.02;44.40;99368.03;5053261;28;20021;-79
2022/06/29 07:11:53;;;;;;;7.85;4.57;;;;;;;27.22;43.38;99397.88;5051221;28;20029;-78
2022/06/29 07:14:18;;;;;;;7.88;5.45;;;;;;;27.12;42.92;99399.78;5053306;28;20047;-78
2022/06/29 07:16:44;;;;;;;6.40;4.20;;;;;;;27.36;42.86;99396.66;5034864;28;20091;-79
2022/06/29 07:19:09;;;;;;;12.13;5.00;;;;;;;27.56;42.75;99394.47;5052907;28;20404;-79
2022/06/29 07:21:35;;;;;;;18.80;8.88;;;;;;;27.76;42.84;99390.63;5052784;28;20059;-78
2022/06/29 07:24:00;;;;;;;8.27;4.45;;;;;;;27.75;41.49;99400.50;5050699;28;20040;-81
2022/06/29 07:26:27;;;;;;;4.45;4.05;;;;;;;27.74;41.66;99393.13;5034838;28;20036;-79
2022/06/29 07:28:52;;;;;;;8.02;4.45;;;;;;;27.92;40.74;99380.31;5053024;28;20495;-75
2022/06/29 07:31:18;;;;;;;8.63;4.55;;;;;;;27.42;41.35;99381.31;5052036;28;20051;-82
2022/06/29 07:33:44;;;;;;;9.63;4.38;;;;;;;27.66;41.48;99377.41;5033850;28;20399;-83
2022/06/29 07:36:10;;;;;;;8.27;4.10;;;;;;;28.02;39.42;99393.56;5034472;28;20029;-87
2022/06/29 07:38:36;;;;;;;21.48;8.32;;;;;;;28.19;39.69;99388.53;5024258;28;20515;-88
2022/06/29 07:41:01;;;;;;;6.65;4.43;;;;;;;28.33;38.62;99378.63;5052248;28;20438;-83
2022/06/29 07:43:28;;;;;;;4.82;4.43;;;;;;;28.26;38.78;99399.00;5033299;28;20526;-82
2022/06/29 07:45:57;;;;;;;9.52;4.40;;;;;;;28.42;39.77;99396.00;5051217;28;20025;-82
2022/06/29 07:48:26;;;;;;;13.75;4.50;;;;;;;28.61;38.99;99402.00;5050031;28;20053;-85
2022/06/29 07:50:53;;;;;;;9.02;4.35;;;;;;;28.72;39.14;99402.44;5033490;28;20037;-85
2022/06/29 07:53:19;;;;;;;6.72;4.30;;;;;;;28.76;38.51;99405.19;5032272;28;20025;-82
2022/06/29 07:55:45;;;;;;;3.78;3.42;;;;;;;28.61;37.80;99386.78;5044166;28;20029;-79
2022/06/29 07:58:14;;;;;;;15.50;5.63;;;;;;;28.87;38.52;99390.47;5051652;28;20458;-84
2022/06/29 08:00:40;;;;;;;12.43;4.85;;;;;;;28.70;39.23;99387.69;5016764;28;20014;-84
2022/06/29 08:03:07;;;;;;;10.50;4.72;;;;;;;28.83;37.77;99392.66;5034534;28;20028;-86
2022/06/29 08:05:33;;;;;;;9.23;4.45;;;;;;;29.09;37.32;99401.25;5042156;28;20021;-81
2022/06/29 08:07:59;;;;;;;10.60;4.32;;;;;;;28.96;37.11;99404.13;5033219;28;20060;-84
2022/06/29 08:10:24;;;;;;;7.93;4.25;;;;;;;29.23;36.86;99394.97;5041647;28;20061;-78
2022/06/29 08:12:50;;;;;;;15.43;5.20;;;;;;;29.22;36.86;99404.88;5044029;28;20109;-81
2022/06/29 08:15:17;;;;;;;5.68;3.92;;;;;;;29.61;36.62;99393.19;5022551;28;20056;-81
2022/06/29 08:17:45;;;;;;;7.32;3.70;;;;;;;29.73;35.70;99390.72;5030417;28;20469;-80
2022/06/29 08:20:12;;;;;;;5.60;4.47;;;;;;;29.87;35.72;99386.47;5032067;28;20044;-80
2022/06/29 08:22:37;;;;;;;4.93;4.10;;;;;;;29.90;35.76;99405.72;5033578;28;20403;-80
2022/06/29 08:25:04;;;;;;;15.85;6.43;;;;;;;29.82;34.86;99396.53;5023502;28;20029;-81
2022/06/29 08:49:23;;;;;;;11.68;4.35;;;;;;;31.49;35.22;99407.84;5128150;27;20614;-84
2022/06/29 08:51:49;;;;;;;22.60;5.00;;;;;;;31.43;33.86;99406.09;5117380;28;20135;-86
2022/06/29 08:54:15;;;;;;;8.20;4.75;;;;;;;31.44;33.35;99390.38;5102616;28;20023;-88
2022/06/29 08:56:42;;;;;;;5.47;3.90;;;;;;;31.56;34.38;99408.81;5102693;28;20027;-86
2022/06/29 08:59:09;;;;;;;11.30;4.18;;;;;;;31.75;33.69;99410.41;5107078;28;20028;-87
2022/06/29 09:01:36;;;;;;;8.77;4.22;;;;;;;31.51;33.28;99372.69;5103600;28;20091;-88
2022/06/29 09:04:02;;;;;;;13.38;4.57;;;;;;;31.85;33.88;99396.75;5098975;28;20023;-89
2022/06/29 09:06:28;;;;;;;8.43;4.25;;;;;;;31.92;33.28;99410.06;5101694;28;20462;-88
2022/06/29 09:08:53;;;;;;;7.53;3.47;;;;;;;31.90;32.94;99409.75;5092065;28;20024;-88
2022/06/29 09:11:30;;;;;;;16.08;4.05;;;;;;;31.84;31.56;99403.84;5119104;28;20054;-85
2022/06/29 09:14:16;;;;;;;7.15;4.07;;;;;;;31.88;33.56;99407.34;5110562;28;20456;-86
2022/06/29 09:17:01;;;;;;;4.57;3.78;;;;;;;31.60;33.16;99416.03;5100044;28;20576;-87
2022/06/29 09:19:44;;;;;;;5.60;3.72;;;;;;;31.74;33.73;99416.66;5098119;28;20512;-86
2022/06/29 09:22:10;;;;;;;6.60;4.07;;;;;;;31.71;32.38;99409.75;5093627;28;20032;-87
2022/06/29 09:24:39;;;;;;;7.63;4.82;;;;;;;31.68;32.52;99399.16;5105411;28;20477;-87
2022/06/29 09:27:06;;;;;;;8.70;4.95;;;;;;;30.96;32.06;99423.38;5104275;28;20108;-89
2022/06/29 09:29:41;;;;;;;5.97;4.40;;;;;;;31.24;32.01;99389.56;5102743;28;20813;-88
2022/06/29 09:32:09;;;;;;;5.65;3.80;;;;;;;32.04;31.82;99414.09;5097813;28;20034;-90
2022/06/29 09:34:35;;;;;;;5.53;3.75;;;;;;;32.19;31.01;99414.16;5112926;28;20077;-91
2022/06/29 09:37:02;;;;;;;7.85;3.35;;;;;;;32.28;28.72;99417.03;5115204;28;20032;-89
2022/06/29 09:39:47;;;;;;;5.72;3.75;;;;;;;31.77;29.28;99378.94;5107820;28;20046;-90
2022/06/29 09:42:20;;;;;;;8.23;4.32;;;;;;;32.24;29.22;99415.59;5093589;28;20055;-91
2022/06/29 09:44:47;;;;;;;6.93;3.92;;;;;;;32.24;29.40;99407.75;5102528;28;20042;-90
2022/06/29 09:47:15;;;;;;;4.43;3.72;;;;;;;32.12;27.38;99385.63;5092614;28;20031;-90
2022/06/29 09:49:43;;;;;;;6.55;3.97;;;;;;;31.92;29.51;99364.63;5118273;28;20043;-93
2022/06/29 09:52:10;;;;;;;7.75;3.78;;;;;;;32.03;27.90;99366.19;5111674;28;20089;-90
2022/06/29 09:54:39;;;;;;;8.25;3.58;;;;;;;31.60;26.91;99348.75;5111391;28;20066;-92
2022/06/29 09:57:07;;;;;;;8.73;4.55;;;;;;;31.91;28.71;99394.03;5107582;28;20032;-90
2022/06/29 10:05:12;;;;;;;8.15;3.88;;;;;;;32.37;27.87;99398.09;5116382;28;20054;-89
2022/06/29 10:07:40;;;;;;;5.20;4.03;;;;;;;32.15;27.67;99344.91;5104154;28;20043;-89
2022/06/29 10:10:09;;;;;;;6.57;3.73;;;;;;;32.41;27.96;99378.44;5101693;28;20040;-91
2022/06/29 10:15:39;;;;;;;9.77;3.70;;;;;;;32.22;27.28;99405.31;5116746;28;20078;-90
2022/06/29 10:18:27;;;;;;;6.57;3.63;;;;;;;32.35;27.08;99405.16;5106038;28;20038;-89
2022/06/29 10:20:53;;;;;;;6.18;3.75;;;;;;;32.25;28.43;99396.97;5094243;28;20048;-90
2022/06/29 10:23:58;;;;;;;12.68;4.28;;;;;;;32.27;28.94;99400.97;5100537;28;20124;-89
2022/06/29 10:26:34;;;;;;;10.88;3.83;;;;;;;32.21;27.77;99394.22;5056782;28;20515;-91
2022/06/29 10:29:06;;;;;;;6.00;3.63;;;;;;;32.37;26.96;99400.97;5092606;28;20097;-88
2022/06/29 10:31:50;;;;;;;5.63;3.63;;;;;;;32.31;26.81;99390.03;5108715;28;20042;-87
2022/06/29 10:34:30;;;;;;;9.75;4.55;;;;;;;32.84;29.67;99392.84;5107580;28;20024;-88
2022/06/29 10:37:02;;;;;;;5.28;3.53;;;;;;;32.77;28.31;99386.13;5094556;28;20035;-89
2022/06/29 10:39:52;;;;;;;5.72;3.92;;;;;;;32.73;28.77;99384.72;5095360;28;20508;-88
2022/06/29 10:45:09;;;;;;;4.28;3.60;;;;;;;33.15;27.05;99392.47;5106657;28;19985;-88
2022/06/29 10:47:35;;;;;;;4.50;4.03;;;;;;;33.22;27.80;99384.72;5094140;28;20525;-88
2022/06/29 10:50:17;;;;;;;4.45;3.55;;;;;;;33.30;25.72;99386.75;5111375;28;20024;-86
2022/06/29 10:52:46;;;;;;;9.13;4.38;;;;;;;33.40;27.11;99375.06;5114606;28;20043;-88
2022/06/29 10:55:12;;;;;;;4.50;3.72;;;;;;;33.67;26.38;99373.22;5111126;28;20032;-87
2022/06/29 10:57:42;;;;;;;6.05;3.17;;;;;;;33.63;25.79;99370.53;5103607;28;20028;-89
2022/06/29 11:00:14;;;;;;;5.85;3.65;;;;;;;33.61;25.46;99370.22;5097199;28;20089;-89
2022/06/29 11:02:41;;;;;;;7.22;3.22;;;;;;;33.63;27.46;99378.44;5094572;28;20032;-91
2022/06/29 11:05:07;;;;;;;10.15;4.13;;;;;;;33.48;27.21;99376.28;5094632;28;20032;-88
2022/06/29 11:13:01;;;;;;;4.85;3.30;;;;;;;33.73;26.65;99374.16;5115428;28;20523;-90
2022/06/29 11:15:39;;;;;;;4.65;3.58;;;;;;;33.82;26.13;99382.72;5106370;28;20031;-89
2022/06/29 11:18:15;;;;;;;6.70;3.65;;;;;;;33.91;26.17;99375.22;5114934;28;20027;-88
2022/06/29 11:20:42;;;;;;;10.15;3.85;;;;;;;33.74;25.02;99376.53;5114717;28;20068;-89
2022/06/29 11:23:13;;;;;;;8.45;3.90;;;;;;;32.76;26.01;99363.47;5114536;28;20534;-88
2022/06/29 11:25:41;;;;;;;25.50;4.93;;;;;;;33.30;26.50;99363.56;5113949;28;20024;-90
2022/06/29 11:28:07;;;;;;;13.65;4.50;;;;;;;33.81;26.23;99360.03;5111868;28;20015;-87
2022/06/29 11:30:33;;;;;;;20.85;4.25;;;;;;;34.06;25.90;99364.44;5110541;28;20473;-88
2022/06/29 11:33:05;;;;;;;7.95;3.63;;;;;;;34.02;26.56;99360.97;5096265;28;20036;-88
2022/06/29 11:35:31;;;;;;;11.00;4.05;;;;;;;34.00;25.61;99332.44;5093515;28;20149;-89
2022/06/29 11:38:01;;;;;;;14.07;3.60;;;;;;;34.36;25.52;99355.69;5093849;28;20140;-88
2022/06/29 11:40:38;;;;;;;12.63;4.50;;;;;;;34.53;24.72;99355.97;5093741;28;20028;-87
2022/06/29 11:43:12;;;;;;;8.63;3.20;;;;;;;34.38;24.65;99355.19;5102725;28;20032;-88
2022/06/29 11:45:38;;;;;;;5.57;4.40;;;;;;;33.61;25.63;99344.13;5094187;28;20089;-88
2022/06/29 11:48:21;;;;;;;11.98;3.40;;;;;;;33.60;26.12;99357.03;5093232;28;20481;-89
2022/06/29 11:50:53;;;;;;;5.97;3.42;;;;;;;33.80;25.96;99365.03;5093459;28;20020;-89
2022/06/29 11:53:53;;;;;;;4.53;3.22;;;;;;;33.87;24.75;99358.84;5099853;28;20032;-89
2022/06/29 11:56:23;;;;;;;7.68;3.50;;;;;;;33.46;25.97;99347.81;5113765;28;20019;-88
2022/06/29 11:58:51;;;;;;;4.38;3.15;;;;;;;33.53;25.32;99351.63;5113331;28;20031;-89
2022/06/29 12:01:19;;;;;;;11.02;4.10;;;;;;;33.40;25.69;99354.78;5114770;28;20023;-88
2022/06/29 12:03:59;;;;;;;7.28;3.30;;;;;;;33.31;25.98;99344.88;5102142;28;20380;-89
2022/06/29 12:06:34;;;;;;;5.88;3.00;;;;;;;33.32;25.59;99345.69;5093251;28;20026;-88
2022/06/29 12:09:00;;;;;;;5.05;3.70;;;;;;;33.25;24.85;99328.69;5092938;28;20414;-88
2022/06/29 12:11:25;;;;;;;6.05;3.58;;;;;;;33.41;26.58;99341.91;5092614;28;20049;-87
2022/06/29 12:13:51;;;;;;;7.57;3.03;;;;;;;33.24;24.87;99335.78;5103691;28;20031;-88
2022/06/29 12:16:17;;;;;;;4.55;2.80;;;;;;;33.69;25.02;99339.56;5102115;28;20016;-88
2022/06/29 12:18:43;;;;;;;4.55;3.53;;;;;;;33.97;25.57;99318.09;5093488;28;20036;-89
2022/06/29 12:21:09;;;;;;;4.63;3.30;;;;;;;34.06;24.11;99331.75;5092817;28;20062;-88
2022/06/29 12:23:36;;;;;;;9.48;4.15;;;;;;;33.89;24.70;99338.03;5093166;28;20081;-88
2022/06/29 12:26:02;;;;;;;9.32;3.33;;;;;;;33.82;24.27;99316.03;5092473;28;20035;-88